createdAt,value
2023-04-27T00:01:50.301Z,3.10
2023-04-27T00:04:19.542Z,3.10
2023-04-27T00:09:16.215Z,2.70
2023-04-27T00:11:44.656Z,3.10
2023-04-27T00:14:12.727Z,2.90
2023-04-27T00:16:41.064Z,3.30
2023-04-27T00:19:09.282Z,2.50
2023-04-27T00:21:37.254Z,2.80
2023-04-27T00:24:06.243Z,2.40
2023-04-27T00:26:34.153Z,2.80
2023-04-27T00:29:02.343Z,2.60
2023-04-27T00:31:30.693Z,2.80
2023-04-27T00:33:58.784Z,2.40
2023-04-27T00:36:27.430Z,2.70
2023-04-27T00:38:55.738Z,3.00
2023-04-27T00:41:23.836Z,2.50
2023-04-27T00:43:51.949Z,2.80
2023-04-27T00:46:20.192Z,2.70
2023-04-27T00:48:48.599Z,2.80
2023-04-27T00:51:17.183Z,3.00
2023-04-27T00:53:45.357Z,2.70
2023-04-27T00:56:13.550Z,2.60
2023-04-27T00:58:41.708Z,2.80
2023-04-27T01:01:11.063Z,3.10
2023-04-27T01:03:39.402Z,2.50
2023-04-27T01:06:07.968Z,2.50
2023-04-27T01:08:37.994Z,2.80
2023-04-27T01:11:06.161Z,2.50
2023-04-27T01:13:34.540Z,2.90
2023-04-27T01:16:02.713Z,2.70
2023-04-27T01:18:32.014Z,3.00
2023-04-27T01:21:00.537Z,2.60
2023-04-27T01:23:28.975Z,3.20
2023-04-27T01:25:56.946Z,2.40
2023-04-27T01:28:24.964Z,2.50
2023-04-27T01:30:53.016Z,3.10
2023-04-27T01:33:22.494Z,2.60
2023-04-27T01:35:51.007Z,2.90
2023-04-27T01:38:19.715Z,2.50
2023-04-27T01:40:47.840Z,2.90
2023-04-27T01:43:16.007Z,2.20
2023-04-27T01:45:44.087Z,3.30
2023-04-27T01:48:12.261Z,2.70
2023-04-27T01:50:40.414Z,2.50
2023-04-27T01:53:08.520Z,2.80
2023-04-27T01:55:36.791Z,2.40
2023-04-27T01:58:05.470Z,3.00
2023-04-27T02:00:33.849Z,2.70
2023-04-27T02:03:02.146Z,2.60
2023-04-27T02:05:30.423Z,2.70
2023-04-27T02:07:58.577Z,2.70
2023-04-27T02:10:26.902Z,3.10
2023-04-27T02:12:57.656Z,2.60
2023-04-27T02:15:26.491Z,2.30
2023-04-27T02:17:55.366Z,2.50
2023-04-27T02:20:23.443Z,2.10
2023-04-27T02:22:53.479Z,2.40
2023-04-27T02:25:21.633Z,2.10
2023-04-27T02:27:49.677Z,2.60
2023-04-27T02:30:18.361Z,2.70
2023-04-27T02:32:47.615Z,2.70
2023-04-27T02:35:16.281Z,2.80
2023-04-27T02:37:44.367Z,2.70
2023-04-27T02:40:16.311Z,2.60
2023-04-27T02:42:44.381Z,2.80
2023-04-27T02:45:12.559Z,2.60
2023-04-27T02:47:40.940Z,2.50
2023-04-27T02:50:09.737Z,2.50
2023-04-27T02:52:37.900Z,2.70
2023-04-27T02:55:07.262Z,2.50
2023-04-27T02:57:35.680Z,2.60
2023-04-27T03:00:06.980Z,2.90
2023-04-27T03:02:35.398Z,3.20
2023-04-27T03:05:04.294Z,2.90
2023-04-27T03:07:32.573Z,2.80
2023-04-27T03:10:00.850Z,2.50
2023-04-27T03:12:31.482Z,2.70
2023-04-27T03:17:29.385Z,2.50
2023-04-27T03:19:57.815Z,2.30
2023-04-27T03:22:25.866Z,2.70
2023-04-27T03:24:53.992Z,2.80
2023-04-27T03:27:21.960Z,2.30
2023-04-27T03:29:55.452Z,2.20
2023-04-27T03:32:23.568Z,2.40
2023-04-27T03:34:52.425Z,1.90
2023-04-27T03:37:20.392Z,2.70
2023-04-27T03:39:48.416Z,2.40
2023-04-27T03:42:16.526Z,2.40
2023-04-27T03:44:44.608Z,2.00
2023-04-27T03:47:13.109Z,2.40
2023-04-27T03:49:41.515Z,2.50
2023-04-27T03:52:09.583Z,2.90
2023-04-27T03:54:38.334Z,2.40
2023-04-27T03:57:06.616Z,2.60
2023-04-27T03:59:34.897Z,3.00
2023-04-27T04:02:05.677Z,2.40
2023-04-27T04:04:33.958Z,3.00
2023-04-27T04:07:03.920Z,2.60
2023-04-27T04:09:32.161Z,2.80
2023-04-27T04:12:00.591Z,3.40
2023-04-27T04:14:28.746Z,2.70
2023-04-27T04:19:26.228Z,2.80
2023-04-27T04:21:54.736Z,2.90
2023-04-27T04:24:22.872Z,2.50
2023-04-27T04:26:51.464Z,2.90
2023-04-27T04:29:19.529Z,2.80
2023-04-27T04:31:48.452Z,2.70
2023-04-27T04:34:16.493Z,2.40
2023-04-27T04:36:44.980Z,2.90
2023-04-27T04:39:13.939Z,2.50
2023-04-27T04:41:42.345Z,3.10
2023-04-27T04:44:12.555Z,2.50
2023-04-27T04:46:41.105Z,2.70
2023-04-27T04:49:09.638Z,2.40
2023-04-27T04:54:10.603Z,2.20
2023-04-27T04:56:38.661Z,2.50
2023-04-27T04:59:07.252Z,2.70
2023-04-27T05:01:35.523Z,2.90
2023-04-27T05:04:03.875Z,2.80
2023-04-27T05:06:32.501Z,3.10
2023-04-27T05:09:09.170Z,2.50
2023-04-27T05:11:37.150Z,2.50
2023-04-27T05:14:05.611Z,3.00
2023-04-27T05:16:33.903Z,2.60
2023-04-27T05:19:02.297Z,2.80
2023-04-27T05:21:30.861Z,2.50
2023-04-27T05:23:58.921Z,3.00
2023-04-27T05:26:27.004Z,3.30
2023-04-27T05:28:55.175Z,2.60
2023-04-27T05:31:23.307Z,2.60
2023-04-27T05:33:51.559Z,3.20
2023-04-27T05:36:19.792Z,2.60
2023-04-27T05:38:48.074Z,2.70
2023-04-27T05:41:16.555Z,3.20
2023-04-27T05:43:45.049Z,2.80
2023-04-27T05:46:16.508Z,2.80
2023-04-27T05:48:44.867Z,2.30
2023-04-27T05:51:13.248Z,2.40
2023-04-27T05:53:41.316Z,2.30
2023-04-27T05:56:11.791Z,2.10
2023-04-27T05:58:40.234Z,2.40
2023-04-27T06:01:08.839Z,2.50
2023-04-27T06:03:37.275Z,2.60
2023-04-27T06:06:05.875Z,2.90
2023-04-27T06:08:37.560Z,2.20
2023-04-27T06:11:06.535Z,2.20
2023-04-27T06:13:34.618Z,2.30
2023-04-27T06:16:02.904Z,2.50
2023-04-27T06:18:31.814Z,2.40
2023-04-27T06:21:01.799Z,2.50
2023-04-27T06:23:30.170Z,2.20
2023-04-27T06:25:58.974Z,2.30
2023-04-27T06:30:55.577Z,2.10
2023-04-27T06:33:23.589Z,2.30
2023-04-27T06:35:51.853Z,2.10
2023-04-27T06:38:19.891Z,2.10
2023-04-27T06:40:51.905Z,2.00
2023-04-27T06:43:20.174Z,2.40
2023-04-27T06:45:48.378Z,2.20
2023-04-27T06:48:17.339Z,2.30
2023-04-27T06:53:13.782Z,2.40
2023-04-27T06:55:44.954Z,2.30
2023-04-27T06:58:14.431Z,2.30
2023-04-27T07:00:42.769Z,2.00
2023-04-27T07:03:11.146Z,2.90
2023-04-27T07:05:39.629Z,2.20
2023-04-27T07:08:08.828Z,2.00
2023-04-27T07:10:37.496Z,2.30
2023-04-27T07:13:08.847Z,2.50
2023-04-27T07:15:37.609Z,2.10
2023-04-27T07:18:05.829Z,2.50
2023-04-27T07:20:33.905Z,2.00
2023-04-27T07:23:02.023Z,2.10
2023-04-27T07:25:30.202Z,2.00
2023-04-27T07:27:59.809Z,2.00
2023-04-27T07:30:31.143Z,2.00
2023-04-27T07:33:00.973Z,2.10
2023-04-27T07:35:29.341Z,2.30
2023-04-27T07:37:57.524Z,2.30
2023-04-27T07:40:25.597Z,1.90
2023-04-27T07:42:54.675Z,2.30
2023-04-27T07:45:23.586Z,2.30
2023-04-27T07:47:52.177Z,2.10
2023-04-27T07:50:24.520Z,2.40
2023-04-27T07:52:54.562Z,2.30
2023-04-27T07:55:24.156Z,2.00
2023-04-27T07:57:57.251Z,2.40
2023-04-27T08:00:26.645Z,2.50
2023-04-27T08:02:55.172Z,2.20
2023-04-27T08:05:23.984Z,2.40
2023-04-27T08:07:54.609Z,2.80
2023-04-27T08:10:23.657Z,2.20
2023-04-27T08:12:51.788Z,2.00
2023-04-27T08:15:20.950Z,2.40
2023-04-27T08:20:17.198Z,2.20
2023-04-27T08:22:45.496Z,2.30
2023-04-27T08:25:13.758Z,2.30
2023-04-27T08:27:41.784Z,2.20
2023-04-27T08:30:10.939Z,2.30
2023-04-27T08:32:39.283Z,2.00
2023-04-27T08:35:07.902Z,2.00
2023-04-27T08:37:36.167Z,2.40
2023-04-27T08:40:06.794Z,2.30
2023-04-27T08:42:34.971Z,2.10
2023-04-27T08:45:04.682Z,2.20
2023-04-27T08:47:42.564Z,2.10
2023-04-27T08:50:13.140Z,2.20
2023-04-27T08:52:44.992Z,1.90
2023-04-27T08:55:16.255Z,1.90
2023-04-27T08:57:58.833Z,2.20
2023-04-27T09:00:27.532Z,2.00
2023-04-27T09:02:56.005Z,1.90
2023-04-27T09:05:24.369Z,2.00
2023-04-27T09:08:00.816Z,1.80
2023-04-27T09:10:31.771Z,2.40
2023-04-27T09:13:01.265Z,2.10
2023-04-27T09:15:30.107Z,2.10
2023-04-27T09:17:58.885Z,2.30
2023-04-27T09:20:27.561Z,2.10
2023-04-27T09:22:58.580Z,2.60
2023-04-27T09:25:30.170Z,2.30
2023-04-27T09:28:00.177Z,2.40
2023-04-27T09:30:29.879Z,2.30
2023-04-27T09:35:29.761Z,2.00
2023-04-27T09:37:58.606Z,1.90
2023-04-27T09:40:31.437Z,1.90
2023-04-27T09:43:01.879Z,2.40
2023-04-27T09:45:30.705Z,2.40
2023-04-27T09:47:59.036Z,2.20
2023-04-27T09:50:27.154Z,2.00
2023-04-27T09:52:55.103Z,2.00
2023-04-27T09:55:28.954Z,2.60
2023-04-27T09:58:28.042Z,2.30
2023-04-27T10:01:21.807Z,2.10
2023-04-27T10:04:24.496Z,2.40
2023-04-27T10:07:09.299Z,2.30
2023-04-27T10:09:40.797Z,2.10
2023-04-27T10:12:19.837Z,2.10
2023-04-27T10:17:33.821Z,2.40
2023-04-27T10:20:09.786Z,2.40
2023-04-27T10:22:46.881Z,2.60
2023-04-27T10:25:26.474Z,2.00
2023-04-27T10:28:02.711Z,2.60
2023-04-27T10:30:38.936Z,2.30
2023-04-27T10:33:09.521Z,2.80
2023-04-27T10:35:53.491Z,2.30
2023-04-27T10:38:27.288Z,1.90
2023-04-27T10:41:03.468Z,2.40
2023-04-27T10:43:35.645Z,2.30
2023-04-27T10:46:13.917Z,2.50
2023-04-27T10:48:43.633Z,2.40
2023-04-27T10:51:16.742Z,2.30
2023-04-27T10:53:44.933Z,2.50
2023-04-27T10:56:12.841Z,2.30
2023-04-27T10:58:49.060Z,2.10
2023-04-27T11:01:25.568Z,2.00
2023-04-27T11:04:00.142Z,2.10
2023-04-27T11:06:30.487Z,2.20
2023-04-27T11:08:59.690Z,2.10
2023-04-27T11:13:56.216Z,2.30
2023-04-27T11:16:24.662Z,2.50
2023-04-27T11:18:52.968Z,2.40
2023-04-27T11:21:22.220Z,2.10
2023-04-27T11:26:25.171Z,2.40
2023-04-27T11:29:12.741Z,2.70
2023-04-27T11:31:49.938Z,2.60
2023-04-27T11:34:19.584Z,2.20
2023-04-27T11:37:10.705Z,2.10
2023-04-27T11:39:46.516Z,2.10
2023-04-27T11:42:18.829Z,2.40
2023-04-27T11:45:06.991Z,2.60
2023-04-27T11:47:38.277Z,2.60
2023-04-27T11:50:08.184Z,2.20
2023-04-27T11:52:38.169Z,3.10
2023-04-27T11:55:15.978Z,2.80
2023-04-27T11:57:44.396Z,2.60
2023-04-27T12:00:14.551Z,2.90
2023-04-27T12:02:44.625Z,2.40
2023-04-27T12:05:14.315Z,2.30
2023-04-27T12:07:43.583Z,2.50
2023-04-27T12:10:12.592Z,2.60
2023-04-27T12:12:41.191Z,1.90
2023-04-27T12:15:09.751Z,2.10
2023-04-27T12:17:39.279Z,2.20
2023-04-27T12:20:08.911Z,2.40
2023-04-27T12:22:37.438Z,2.50
2023-04-27T12:25:06.405Z,2.10
2023-04-27T12:27:34.369Z,2.20
2023-04-27T12:30:03.038Z,2.40
2023-04-27T12:32:31.904Z,2.20
2023-04-27T12:34:59.946Z,2.50
2023-04-27T12:37:28.040Z,2.30
2023-04-27T12:39:56.499Z,2.10
2023-04-27T12:42:24.651Z,1.90
2023-04-27T12:44:53.980Z,2.10
2023-04-27T12:47:42.973Z,2.40
2023-04-27T12:50:10.699Z,2.30
2023-04-27T12:52:38.990Z,2.70
2023-04-27T12:55:15.193Z,3.10
2023-04-27T12:57:46.598Z,3.60
2023-04-27T13:00:15.487Z,2.80
2023-04-27T13:02:43.958Z,2.30
2023-04-27T13:05:12.149Z,2.20
2023-04-27T13:07:40.184Z,2.30
2023-04-27T13:10:08.948Z,1.90
2023-04-27T13:12:37.001Z,2.20
2023-04-27T13:15:05.718Z,2.20
2023-04-27T13:17:33.759Z,2.20
2023-04-27T13:20:02.243Z,2.30
2023-04-27T13:22:30.486Z,2.80
2023-04-27T13:24:58.552Z,2.50
2023-04-27T13:27:28.587Z,2.30
2023-04-27T13:29:56.707Z,2.30
2023-04-27T13:32:24.839Z,2.00
2023-04-27T13:34:52.862Z,2.10
2023-04-27T13:37:22.086Z,2.70
2023-04-27T13:42:18.129Z,2.70
2023-04-27T13:44:46.333Z,2.50
2023-04-27T13:47:14.513Z,2.20
2023-04-27T13:49:42.970Z,2.70
2023-04-27T13:52:11.133Z,2.60
2023-04-27T13:54:39.102Z,2.70
2023-04-27T13:57:07.177Z,2.10
2023-04-27T13:59:35.112Z,2.20
2023-04-27T14:02:03.726Z,2.10
2023-04-27T14:04:32.616Z,2.10
2023-04-27T14:07:00.896Z,1.90
2023-04-27T14:09:29.285Z,2.20
2023-04-27T14:12:01.687Z,2.20
2023-04-27T14:14:30.027Z,2.10
2023-04-27T14:16:58.014Z,2.10
2023-04-27T14:19:27.520Z,2.00
2023-04-27T14:21:56.424Z,2.00
2023-04-27T14:24:24.715Z,2.20
2023-04-27T14:26:52.753Z,2.10
2023-04-27T14:29:21.572Z,2.10
2023-04-27T14:31:50.266Z,2.10
2023-04-27T14:34:20.887Z,2.10
2023-04-27T14:36:49.864Z,2.10
2023-04-27T14:39:18.432Z,2.40
2023-04-27T14:41:46.512Z,2.40
2023-04-27T14:44:14.659Z,2.20
2023-04-27T14:46:42.840Z,2.00
2023-04-27T14:49:11.472Z,2.00
2023-04-27T14:51:40.576Z,1.90
2023-04-27T14:54:09.947Z,1.80
2023-04-27T14:56:38.112Z,2.50
2023-04-27T14:59:06.608Z,2.00
2023-04-27T15:01:36.610Z,1.90
2023-04-27T15:04:05.494Z,1.90
2023-04-27T15:06:33.881Z,1.90
2023-04-27T15:09:01.858Z,2.10
2023-04-27T15:11:29.788Z,2.00
2023-04-27T15:13:57.914Z,2.10
2023-04-27T15:16:26.380Z,2.30
2023-04-27T15:18:54.865Z,2.00
2023-04-27T15:21:23.088Z,2.10
2023-04-27T15:23:51.200Z,2.10
2023-04-27T15:26:19.275Z,1.90
2023-04-27T15:28:47.460Z,1.70
2023-04-27T15:31:15.938Z,2.00
2023-04-27T15:33:44.104Z,2.20
2023-04-27T15:36:12.917Z,1.90
2023-04-27T15:38:41.276Z,1.80
2023-04-27T15:41:09.446Z,1.80
2023-04-27T15:43:37.495Z,2.30
2023-04-27T15:46:06.649Z,2.40
2023-04-27T15:51:03.975Z,2.00
2023-04-27T15:53:32.631Z,1.90
2023-04-27T15:56:00.871Z,2.20
2023-04-27T15:58:29.363Z,2.10
2023-04-27T16:01:00.035Z,2.10
2023-04-27T16:03:29.084Z,2.50
2023-04-27T16:05:57.394Z,3.60
2023-04-27T16:08:27.684Z,3.10
2023-04-27T16:10:56.033Z,2.40
2023-04-27T16:13:24.856Z,1.80
2023-04-27T16:15:52.837Z,1.60
2023-04-27T16:18:21.334Z,2.00
2023-04-27T16:20:49.286Z,2.30
2023-04-27T16:23:17.274Z,2.00
2023-04-27T16:25:45.249Z,1.90
2023-04-27T16:28:13.861Z,2.00
2023-04-27T16:30:42.158Z,1.80
2023-04-27T16:33:10.793Z,2.00
2023-04-27T16:35:39.259Z,1.80
2023-04-27T16:38:07.588Z,2.30
2023-04-27T16:40:35.759Z,2.10
2023-04-27T16:43:03.837Z,2.10
2023-04-27T16:45:33.990Z,1.90
2023-04-27T16:48:03.534Z,2.30
2023-04-27T16:50:32.362Z,2.20
2023-04-27T16:53:13.528Z,2.30
2023-04-27T16:55:41.659Z,2.30
2023-04-27T16:58:09.849Z,2.40
2023-04-27T17:00:40.421Z,2.30
2023-04-27T17:03:09.738Z,2.10
2023-04-27T17:05:38.092Z,2.30
2023-04-27T17:08:06.498Z,2.80
2023-04-27T17:10:36.662Z,2.70
2023-04-27T17:13:07.820Z,2.90
2023-04-27T17:15:35.998Z,2.20
2023-04-27T17:18:05.110Z,2.60
2023-04-27T17:20:33.617Z,2.30
2023-04-27T17:23:01.946Z,2.40
2023-04-27T17:25:38.249Z,2.70
2023-04-27T17:28:07.427Z,2.60
2023-04-27T17:30:35.617Z,2.30
2023-04-27T17:33:04.077Z,2.70
2023-04-27T17:35:32.518Z,2.50
2023-04-27T17:38:01.219Z,2.10
2023-04-27T17:40:31.120Z,2.30
2023-04-27T17:43:00.312Z,2.30
2023-04-27T17:47:57.514Z,2.00
2023-04-27T17:50:26.347Z,2.60
2023-04-27T17:52:54.655Z,2.60
2023-04-27T17:55:24.102Z,2.80
2023-04-27T18:00:20.295Z,2.50
2023-04-27T18:02:49.861Z,2.50
2023-04-27T18:05:18.694Z,2.60
2023-04-27T18:07:46.736Z,2.60
2023-04-27T18:10:15.117Z,2.60
2023-04-27T18:12:43.304Z,2.50
2023-04-27T18:15:11.721Z,2.90
2023-04-27T18:17:40.162Z,2.90
2023-04-27T18:20:10.556Z,3.10
2023-04-27T18:22:40.403Z,2.80
2023-04-27T18:25:10.476Z,3.10
2023-04-27T18:27:40.019Z,3.20
2023-04-27T18:30:08.685Z,2.80
2023-04-27T18:32:37.986Z,2.70
2023-04-27T18:37:38.141Z,3.20
2023-04-27T18:40:08.368Z,2.90
2023-04-27T18:42:36.442Z,3.40
2023-04-27T18:45:05.505Z,3.10
2023-04-27T18:47:33.756Z,3.00
2023-04-27T18:50:02.186Z,3.50
2023-04-27T18:52:30.782Z,3.30
2023-04-27T18:54:59.040Z,3.50
2023-04-27T18:57:27.117Z,3.50
2023-04-27T18:59:58.164Z,3.40
2023-04-27T19:02:26.396Z,3.60
2023-04-27T19:05:11.260Z,3.10
2023-04-27T19:07:40.137Z,2.90
2023-04-27T19:10:09.046Z,2.90
2023-04-27T19:12:37.649Z,2.70
2023-04-27T19:15:06.404Z,2.90
2023-04-27T19:20:06.718Z,2.90
2023-04-27T19:22:36.965Z,2.60
2023-04-27T19:25:06.304Z,2.90
2023-04-27T19:30:04.258Z,3.00
2023-04-27T19:32:34.030Z,2.90
2023-04-27T19:35:02.528Z,3.30
2023-04-27T19:37:30.756Z,4.80
2023-04-27T19:39:59.253Z,5.40
2023-04-27T19:42:27.381Z,4.80
2023-04-27T19:44:56.130Z,3.80
2023-04-27T19:47:24.366Z,2.60
2023-04-27T19:49:53.181Z,3.00
2023-04-27T19:52:21.366Z,3.10
2023-04-27T19:54:53.748Z,3.00
2023-04-27T19:57:22.210Z,5.30
2023-04-27T19:59:50.384Z,11.30
2023-04-27T20:02:18.684Z,13.00
2023-04-27T20:04:47.381Z,14.90
2023-04-27T20:07:16.150Z,14.70
2023-04-27T20:09:44.333Z,7.50
2023-04-27T20:12:28.965Z,4.60
2023-04-27T20:15:00.653Z,3.30
2023-04-27T20:17:29.288Z,2.90
2023-04-27T20:19:57.401Z,3.40
2023-04-27T20:22:25.765Z,3.10
2023-04-27T20:24:54.267Z,2.90
2023-04-27T20:27:24.168Z,2.70
2023-04-27T20:29:52.432Z,3.20
2023-04-27T20:32:20.778Z,2.50
2023-04-27T20:34:49.057Z,2.20
2023-04-27T20:37:17.374Z,2.50
2023-04-27T20:39:46.395Z,2.90
2023-04-27T20:42:14.654Z,3.20
2023-04-27T20:44:46.502Z,2.80
2023-04-27T20:47:15.512Z,2.90
2023-04-27T20:49:43.891Z,3.30
2023-04-27T20:52:12.473Z,2.50
2023-04-27T20:54:40.768Z,3.10
2023-04-27T20:57:13.575Z,2.80
2023-04-27T20:59:41.897Z,2.70
2023-04-27T21:02:09.969Z,2.80
2023-04-27T21:04:38.246Z,2.70
2023-04-27T21:07:06.622Z,2.60
2023-04-27T21:09:38.999Z,2.80
2023-04-27T21:12:07.480Z,2.70
2023-04-27T21:14:36.071Z,3.30
2023-04-27T21:17:04.491Z,3.10
2023-04-27T21:19:32.926Z,2.80
2023-04-27T21:22:01.432Z,3.20
2023-04-27T21:24:30.203Z,2.50
2023-04-27T21:26:59.257Z,2.80
2023-04-27T21:29:28.026Z,2.70
2023-04-27T21:31:56.279Z,2.40
2023-04-27T21:34:24.342Z,2.80
2023-04-27T21:36:52.522Z,3.00
2023-04-27T21:39:21.001Z,3.10
2023-04-27T21:41:49.258Z,2.70
2023-04-27T21:44:17.746Z,3.00
2023-04-27T21:46:46.262Z,3.20
2023-04-27T21:49:14.992Z,3.40
2023-04-27T21:51:43.085Z,3.90
2023-04-27T21:54:12.044Z,3.70
2023-04-27T21:56:41.462Z,3.60
2023-04-27T21:59:09.652Z,3.60
2023-04-27T22:01:38.027Z,3.70
2023-04-27T22:04:06.910Z,3.30
2023-04-27T22:06:36.017Z,3.00
2023-04-27T22:09:06.507Z,3.20
2023-04-27T22:11:36.465Z,2.70
2023-04-27T22:14:04.602Z,3.00
2023-04-27T22:16:32.785Z,2.60
2023-04-27T22:19:01.250Z,3.30
2023-04-27T22:21:29.566Z,3.40
2023-04-27T22:23:57.950Z,3.60
2023-04-27T22:26:26.792Z,3.00
2023-04-27T22:28:55.359Z,2.90
2023-04-27T22:31:23.777Z,3.30
2023-04-27T22:33:53.116Z,3.20
2023-04-27T22:36:22.407Z,3.00
2023-04-27T22:38:51.142Z,3.20
2023-04-27T22:41:19.443Z,3.50
2023-04-27T22:43:47.648Z,3.40
2023-04-27T22:46:16.137Z,3.20
2023-04-27T22:48:45.142Z,3.00
2023-04-27T22:51:13.191Z,3.30
2023-04-27T22:53:41.288Z,3.10
2023-04-27T22:56:09.743Z,3.00
2023-04-27T22:58:37.918Z,2.80
2023-04-27T23:01:06.231Z,3.90
2023-04-27T23:03:34.523Z,4.60
2023-04-27T23:06:03.034Z,12.60
2023-04-27T23:08:31.368Z,13.10
2023-04-27T23:11:09.079Z,7.60
2023-04-27T23:13:38.230Z,6.30
2023-04-27T23:16:07.053Z,6.30
2023-04-27T23:18:35.423Z,5.40
2023-04-27T23:21:04.197Z,6.40
2023-04-27T23:23:32.254Z,5.40
2023-04-27T23:26:00.949Z,5.40
2023-04-27T23:28:29.157Z,5.00
2023-04-27T23:30:57.314Z,5.20
2023-04-27T23:33:25.462Z,4.80
2023-04-27T23:35:55.277Z,4.30
2023-04-27T23:38:24.275Z,4.00
2023-04-27T23:40:52.702Z,4.70
2023-04-27T23:43:20.937Z,4.70
2023-04-27T23:45:52.872Z,4.60
2023-04-27T23:48:21.062Z,3.50
2023-04-27T23:50:49.149Z,3.50
2023-04-27T23:53:17.455Z,3.60
2023-04-27T23:55:45.891Z,3.80
2023-04-27T23:58:14.376Z,3.40
